Portada
METAR-TAF:

METAR-TAF

Aeropuertos :

Vanua Lava, Vanuatu

latitud: 13-51-06S, longitud: 167-32-13E, altitud: 2 m

Observación

El informe se hizo hace 4 horas y 8 minutos, a las 12:00 UTC
Viento calma
Temperatura 27°C
Humedad 94%
Presión 1012 hPa
Visibilidad 10 km o más
Cielo nuboso a una altura de 2000 ft

METAR: NVSC 201200Z 00000KT 9999 BKN020 27/26 Q1012 RERA

Hora: 03:08 (16:08 UTC)

Pronóstico

El informe se hizo hace 5 horas y 8 minutos, a las 11:00 UTC
Pronóstico válido del 20 a las 12 UTC al 21 a las 12 UTC
Viento 8 kt del este-sureste
Visibilidad: 9000 m
Nubes dispersas a una altura de 2000 ft
Cielo nuboso a una altura de 4000 ft
Nubes dispersas a una altura de 1500 ft
Cielo nuboso a una altura de 3800 ft
chaparrones de lluvia,

TAF: NVSC 201100Z 2012/2112 11008KT 9999 SCT020 BKN040 INTER 2012/2018 9000 SHRA SCT015 BKN038

Observaciones y pronósticos meteorológicos de más de 4000 aeropuertos (mensajes METAR y TAF).

Los puntos amarillos y rojos representan las estaciones disponibles.

Ponga el ratón en el punto deseado para ver el nombre de la estación.

Haga clic para ver las observaciones y los pronósticos meteorológicos.

Para cambiar el mapa : haga clic en los botones verdes con una cruz de color negro para hacer un zoom, en el botón verde con un guión para alejar o en las flechas verdes para mapas adyacentes.


METAR-TAF: